Aviation Digital Data Service (ADDS)

Output produced by METARs form (0358 UTC 26 June 2019)
found at http://www.aviationweather.gov/metar/data/
 
METAR text: DFFD 251100Z 20012KT CAVOK 30/18 Q1013 NOSIG
Conditions at: DFFD (OUAGADOUGOU (MIL, BF) observed 1100 UTC 25 June 2019
Temperature: 30.0°C (86°F)
Dewpoint: 18.0°C (64°F) [RH = 49%]
Pressure (altimeter): 29.91 inches Hg (1013.0 mb)
Winds: from the SSW (200 degrees) at 14 MPH (12 knots; 6.2 m/s)
Visibility: 6 or more miles (10+ km)
Ceiling: ceiling and visibility are OK
Clouds: unknown
Weather: no significant weather observed at this time

METAR text: DFFD 251000Z 18010KT CAVOK 29/18 Q1013 NOSIG
Conditions at: DFFD (OUAGADOUGOU (MIL, BF) observed 1000 UTC 25 June 2019
Temperature: 29.0°C (84°F)
Dewpoint: 18.0°C (64°F) [RH = 52%]
Pressure (altimeter): 29.91 inches Hg (1013.0 mb)
Winds: from the S (180 degrees) at 12 MPH (10 knots; 5.1 m/s)
Visibility: 6 or more miles (10+ km)
Ceiling: ceiling and visibility are OK
Clouds: unknown
Weather: no significant weather observed at this time

METAR text: DFFD 250900Z 18008KT CAVOK 28/19 Q1013 NOSIG
Conditions at: DFFD (OUAGADOUGOU (MIL, BF) observed 0900 UTC 25 June 2019
Temperature: 28.0°C (82°F)
Dewpoint: 19.0°C (66°F) [RH = 58%]
Pressure (altimeter): 29.91 inches Hg (1013.0 mb)
Winds: from the S (180 degrees) at 9 MPH (8 knots; 4.1 m/s)
Visibility: 6 or more miles (10+ km)
Ceiling: ceiling and visibility are OK
Clouds: unknown
Weather: no significant weather observed at this time

METAR text: DFFD 250800Z 20008KT CAVOK 25/19 Q1012 NOSIG
Conditions at: DFFD (OUAGADOUGOU (MIL, BF) observed 0800 UTC 25 June 2019
Temperature: 25.0°C (77°F)
Dewpoint: 19.0°C (66°F) [RH = 69%]
Pressure (altimeter): 29.88 inches Hg (1012.0 mb)
Winds: from the SSW (200 degrees) at 9 MPH (8 knots; 4.1 m/s)
Visibility: 6 or more miles (10+ km)
Ceiling: ceiling and visibility are OK
Clouds: unknown
Weather: no significant weather observed at this time

METAR text: DFFD 250700Z 20008KT CAVOK 24/20 Q1012 NOSIG
Conditions at: DFFD (OUAGADOUGOU (MIL, BF) observed 0700 UTC 25 June 2019
Temperature: 24.0°C (75°F)
Dewpoint: 20.0°C (68°F) [RH = 78%]
Pressure (altimeter): 29.88 inches Hg (1012.0 mb)
Winds: from the SSW (200 degrees) at 9 MPH (8 knots; 4.1 m/s)
Visibility: 6 or more miles (10+ km)
Ceiling: ceiling and visibility are OK
Clouds: unknown
Weather: no significant weather observed at this time

METAR text: DFFD 250600Z 18006KT CAVOK 24/20 Q1011 NOSIG
Conditions at: DFFD (OUAGADOUGOU (MIL, BF) observed 0600 UTC 25 June 2019
Temperature: 24.0°C (75°F)
Dewpoint: 20.0°C (68°F) [RH = 78%]
Pressure (altimeter): 29.85 inches Hg (1011.0 mb)
Winds: from the S (180 degrees) at 7 MPH (6 knots; 3.1 m/s)
Visibility: 6 or more miles (10+ km)
Ceiling: ceiling and visibility are OK
Clouds: unknown
Weather: no significant weather observed at this time

METAR text: DFFD 250500Z 19007KT 9999 FEW020 24/20 Q1010 NOSIG
Conditions at: DFFD (OUAGADOUGOU (MIL, BF) observed 0500 UTC 25 June 2019
Temperature: 24.0°C (75°F)
Dewpoint: 20.0°C (68°F) [RH = 78%]
Pressure (altimeter): 29.82 inches Hg (1010.0 mb)
Winds: from the S (190 degrees) at 8 MPH (7 knots; 3.6 m/s)
Visibility: 6 or more miles (10+ km)
Ceiling: at least 12,000 feet AGL
Clouds: few clouds at 2000 feet AGL
Weather: no significant weather observed at this time

METAR text: DFFD 250400Z 18007KT 9999 FEW020 24/19 Q1010 RETS NOSIG
Conditions at: DFFD (OUAGADOUGOU (MIL, BF) observed 0400 UTC 25 June 2019
Temperature: 24.0°C (75°F)
Dewpoint: 19.0°C (66°F) [RH = 74%]
Pressure (altimeter): 29.82 inches Hg (1010.0 mb)
Winds: from the S (180 degrees) at 8 MPH (7 knots; 3.6 m/s)
Visibility: 6 or more miles (10+ km)
Ceiling: at least 12,000 feet AGL
Clouds: few clouds at 2000 feet AGL
Weather: no significant weather observed at this time

METAR text: DFFD 250300Z 17006KT 9999 TS FEW020 FEW033CB 24/19 Q1009 BECMG NSW
Conditions at: DFFD (OUAGADOUGOU (MIL, BF) observed 0300 UTC 25 June 2019
Temperature: 24.0°C (75°F)
Dewpoint: 19.0°C (66°F) [RH = 74%]
Pressure (altimeter): 29.79 inches Hg (1009.0 mb)
Winds: from the S (170 degrees) at 7 MPH (6 knots; 3.1 m/s)
Visibility: 6 or more miles (10+ km)
Ceiling: at least 12,000 feet AGL
Clouds: few clouds at 2000 feet AGL
few clouds at 3300 feet AGL
Weather: TS  (thunderstorm)

METAR text: DFFD 250200Z 19012KT 9999 TS FEW020 FEW033CB 24/20 Q1009 BECMG NSW
Conditions at: DFFD (OUAGADOUGOU (MIL, BF) observed 0200 UTC 25 June 2019
Temperature: 24.0°C (75°F)
Dewpoint: 20.0°C (68°F) [RH = 78%]
Pressure (altimeter): 29.79 inches Hg (1009.0 mb)
Winds: from the S (190 degrees) at 14 MPH (12 knots; 6.2 m/s)
Visibility: 6 or more miles (10+ km)
Ceiling: at least 12,000 feet AGL
Clouds: few clouds at 2000 feet AGL
few clouds at 3300 feet AGL
Weather: TS  (thunderstorm)

METAR text: DFFD 250100Z 19012KT 9999 TS FEW020 FEW033CB 24/20 Q1009 BECMG NSW
Conditions at: DFFD (OUAGADOUGOU (MIL, BF) observed 0100 UTC 25 June 2019
Temperature: 24.0°C (75°F)
Dewpoint: 20.0°C (68°F) [RH = 78%]
Pressure (altimeter): 29.79 inches Hg (1009.0 mb)
Winds: from the S (190 degrees) at 14 MPH (12 knots; 6.2 m/s)
Visibility: 6 or more miles (10+ km)
Ceiling: at least 12,000 feet AGL
Clouds: few clouds at 2000 feet AGL
few clouds at 3300 feet AGL
Weather: TS  (thunderstorm)

METAR text: DFFD 250000Z 25008KT 9999 TS FEW020 FEW033CB 24/20 Q1010 NOSIG
Conditions at: DFFD (OUAGADOUGOU (MIL, BF) observed 0000 UTC 25 June 2019
Temperature: 24.0°C (75°F)
Dewpoint: 20.0°C (68°F) [RH = 78%]
Pressure (altimeter): 29.82 inches Hg (1010.0 mb)
Winds: from the WSW (250 degrees) at 9 MPH (8 knots; 4.1 m/s)
Visibility: 6 or more miles (10+ km)
Ceiling: at least 12,000 feet AGL
Clouds: few clouds at 2000 feet AGL
few clouds at 3300 feet AGL
Weather: TS  (thunderstorm)

METAR text: DFFD 242300Z 25010KT 220V280 9999 TS SCT020 SCT033CB 24/20 Q1013 TEMPO 4000 TSRA
Conditions at: DFFD (OUAGADOUGOU (MIL, BF) observed 2300 UTC 24 June 2019
Temperature: 24.0°C (75°F)
Dewpoint: 20.0°C (68°F) [RH = 78%]
Pressure (altimeter): 29.91 inches Hg (1013.0 mb)
Winds: from the WSW (250 degrees) at 12 MPH (10 knots; 5.1 m/s)
Visibility: 6 or more miles (10+ km)
Ceiling: at least 12,000 feet AGL
Clouds: scattered clouds at 2000 feet AGL
scattered clouds at 3300 feet AGL
Weather: TS  (thunderstorm)

METAR text: DFFD 242200Z 14006KT 100V190 9999 TS SCT020 SCT033CB 24/19 Q1012 RETSRA TEMPO 2500 TSRA
Conditions at: DFFD (OUAGADOUGOU (MIL, BF) observed 2200 UTC 24 June 2019
Temperature: 24.0°C (75°F)
Dewpoint: 19.0°C (66°F) [RH = 74%]
Pressure (altimeter): 29.88 inches Hg (1012.0 mb)
Winds: from the SE (140 degrees) at 7 MPH (6 knots; 3.1 m/s)
Visibility: 6 or more miles (10+ km)
Ceiling: at least 12,000 feet AGL
Clouds: scattered clouds at 2000 feet AGL
scattered clouds at 3300 feet AGL
Weather: TS  (thunderstorm)

METAR text: DFFD 242100Z 19008KT 9999 TS SCT020 FEW033CB 33/22 Q1011 TEMPO 06025G45KT 2500 SQ BLSA TSRA
Conditions at: DFFD (OUAGADOUGOU (MIL, BF) observed 2100 UTC 24 June 2019
Temperature: 33.0°C (91°F)
Dewpoint: 22.0°C (72°F) [RH = 53%]
Pressure (altimeter): 29.85 inches Hg (1011.0 mb)
Winds: from the S (190 degrees) at 9 MPH (8 knots; 4.1 m/s)
Visibility: 6 or more miles (10+ km)
Ceiling: at least 12,000 feet AGL
Clouds: scattered clouds at 2000 feet AGL
few clouds at 3300 feet AGL
Weather: TS  (thunderstorm)

METAR text: DFFD 242000Z 21009KT 9999 TS FEW020 FEW033CB 33/22 Q1009 TEMPO 06025G45KT 2500 SQ BLSA TSRA
Conditions at: DFFD (OUAGADOUGOU (MIL, BF) observed 2000 UTC 24 June 2019
Temperature: 33.0°C (91°F)
Dewpoint: 22.0°C (72°F) [RH = 53%]
Pressure (altimeter): 29.79 inches Hg (1009.0 mb)
Winds: from the SSW (210 degrees) at 10 MPH (9 knots; 4.6 m/s)
Visibility: 6 or more miles (10+ km)
Ceiling: at least 12,000 feet AGL
Clouds: few clouds at 2000 feet AGL
few clouds at 3300 feet AGL
Weather: TS  (thunderstorm)

METAR text: DFFD 241900Z 21008KT 9999 FEW020 33/23 Q1009 TEMPO TS FEW020 FEW033CB
Conditions at: DFFD (OUAGADOUGOU (MIL, BF) observed 1900 UTC 24 June 2019
Temperature: 33.0°C (91°F)
Dewpoint: 23.0°C (73°F) [RH = 56%]
Pressure (altimeter): 29.79 inches Hg (1009.0 mb)
Winds: from the SSW (210 degrees) at 9 MPH (8 knots; 4.1 m/s)
Visibility: 6 or more miles (10+ km)
Ceiling: at least 12,000 feet AGL
Clouds: few clouds at 2000 feet AGL
Weather: no significant weather observed at this time

METAR text: DFFD 241800Z 24007KT 210V280 9999 FEW020 FEW033CB 35/22 Q1009 TEMPO TS
Conditions at: DFFD (OUAGADOUGOU (MIL, BF) observed 1800 UTC 24 June 2019
Temperature: 35.0°C (95°F)
Dewpoint: 22.0°C (72°F) [RH = 47%]
Pressure (altimeter): 29.79 inches Hg (1009.0 mb)
Winds: from the WSW (240 degrees) at 8 MPH (7 knots; 3.6 m/s)
Visibility: 6 or more miles (10+ km)
Ceiling: at least 12,000 feet AGL
Clouds: few clouds at 2000 feet AGL
few clouds at 3300 feet AGL
Weather: no significant weather observed at this time

METAR text: DFFD 241700Z 26006KT 200V300 9999 FEW020 36/20 Q1008 NOSIG
Conditions at: DFFD (OUAGADOUGOU (MIL, BF) observed 1700 UTC 24 June 2019
Temperature: 36.0°C (97°F)
Dewpoint: 20.0°C (68°F) [RH = 39%]
Pressure (altimeter): 29.76 inches Hg (1008.0 mb)
Winds: from the W (260 degrees) at 7 MPH (6 knots; 3.1 m/s)
Visibility: 6 or more miles (10+ km)
Ceiling: at least 12,000 feet AGL
Clouds: few clouds at 2000 feet AGL
Weather: no significant weather observed at this time

METAR text: DFFD 241600Z 28007KT 200V330 9999 FEW020 36/21 Q1008 NOSIG
Conditions at: DFFD (OUAGADOUGOU (MIL, BF) observed 1600 UTC 24 June 2019
Temperature: 36.0°C (97°F)
Dewpoint: 21.0°C (70°F) [RH = 42%]
Pressure (altimeter): 29.76 inches Hg (1008.0 mb)
Winds: from the W (280 degrees) at 8 MPH (7 knots; 3.6 m/s)
Visibility: 6 or more miles (10+ km)
Ceiling: at least 12,000 feet AGL
Clouds: few clouds at 2000 feet AGL
Weather: no significant weather observed at this time